createdAt,value
2019-05-15T00:00:10.004Z,71.09
2019-05-15T00:00:40.063Z,70.79
2019-05-15T00:01:13.175Z,71.07
2019-05-15T00:01:42.081Z,71.47
2019-05-15T00:02:11.077Z,71.73
2019-05-15T00:02:40.062Z,71.71
2019-05-15T00:03:10.001Z,70.73
2019-05-15T00:03:40.061Z,70.87
2019-05-15T00:04:10.001Z,71.23
2019-05-15T00:04:40.062Z,70.35
2019-05-15T00:05:10.003Z,70.83
2019-05-15T00:05:40.062Z,71.03
2019-05-15T00:06:10.000Z,71.26
2019-05-15T00:06:40.062Z,70.72
2019-05-15T00:07:09.998Z,70.33
2019-05-15T00:07:40.067Z,70.61
2019-05-15T00:08:11.010Z,71.16
2019-05-15T00:08:40.061Z,71.40
2019-05-15T00:09:10.004Z,71.59
2019-05-15T00:09:43.366Z,71.53
2019-05-15T00:10:10.004Z,71.73
2019-05-15T00:10:40.060Z,71.81
2019-05-15T00:11:43.243Z,71.67
2019-05-15T00:12:10.010Z,71.42
2019-05-15T00:12:40.062Z,71.18
2019-05-15T00:13:10.011Z,71.10
2019-05-15T00:13:40.063Z,71.10
2019-05-15T00:14:10.024Z,71.10
2019-05-15T00:14:40.073Z,71.15
2019-05-15T00:15:11.066Z,70.87
2019-05-15T00:15:41.069Z,70.71
2019-05-15T00:16:10.011Z,70.69
2019-05-15T00:16:40.061Z,70.63
2019-05-15T00:17:10.002Z,70.36
2019-05-15T00:17:40.062Z,70.35
2019-05-15T00:18:10.003Z,70.39
2019-05-15T00:18:40.070Z,70.60
2019-05-15T00:19:10.005Z,70.69
2019-05-15T00:19:40.058Z,70.65
2019-05-15T00:20:13.172Z,70.58
2019-05-15T00:20:40.058Z,70.63
2019-05-15T00:21:09.998Z,70.65
2019-05-15T00:21:40.067Z,70.63
2019-05-15T00:22:13.463Z,70.64
2019-05-15T00:22:40.061Z,70.46
2019-05-15T00:23:10.010Z,70.42
2019-05-15T00:23:40.070Z,70.34
2019-05-15T00:24:13.042Z,70.48
2019-05-15T00:24:40.066Z,70.58
2019-05-15T00:25:10.004Z,70.81
2019-05-15T00:25:40.064Z,70.93
2019-05-15T00:26:10.006Z,70.85
2019-05-15T00:26:40.067Z,70.80
2019-05-15T00:27:10.016Z,70.71
2019-05-15T00:27:40.095Z,70.76
2019-05-15T00:28:10.006Z,70.85
2019-05-15T00:28:40.073Z,70.83
2019-05-15T00:29:15.983Z,70.69
2019-05-15T00:29:40.075Z,70.72
2019-05-15T00:30:10.006Z,70.71
2019-05-15T00:30:43.306Z,70.61
2019-05-15T00:31:10.011Z,70.61
2019-05-15T00:31:40.071Z,70.41
2019-05-15T00:32:10.010Z,70.45
2019-05-15T00:32:43.331Z,70.71
2019-05-15T00:33:10.008Z,70.99
2019-05-15T00:33:40.063Z,71.18
2019-05-15T00:34:12.712Z,71.20
2019-05-15T00:34:40.068Z,71.15
2019-05-15T00:35:10.021Z,71.10
2019-05-15T00:35:40.070Z,71.11
2019-05-15T00:36:10.005Z,71.01
2019-05-15T00:36:40.062Z,71.13
2019-05-15T00:37:10.004Z,71.41
2019-05-15T00:37:40.066Z,72.08
2019-05-15T00:38:10.006Z,72.12
2019-05-15T00:38:40.064Z,72.45
2019-05-15T00:39:10.006Z,72.31
2019-05-15T00:39:40.071Z,71.96
2019-05-15T00:40:10.014Z,72.08
2019-05-15T00:40:40.076Z,72.22
2019-05-15T00:41:13.512Z,72.00
2019-05-15T00:41:51.328Z,72.14
2019-05-15T00:42:10.015Z,71.91
2019-05-15T00:42:40.073Z,72.04
2019-05-15T00:43:13.595Z,71.99
2019-05-15T00:43:40.073Z,72.03
2019-05-15T00:44:10.013Z,72.41
2019-05-15T00:44:40.075Z,72.00
2019-05-15T00:45:10.014Z,71.72
2019-05-15T00:45:40.070Z,71.32
2019-05-15T00:46:10.012Z,71.16
2019-05-15T00:46:40.068Z,71.14
2019-05-15T00:47:10.547Z,71.15
2019-05-15T00:47:41.086Z,71.40
2019-05-15T00:48:10.012Z,71.42
2019-05-15T00:48:41.114Z,71.03
2019-05-15T00:49:10.025Z,71.30
2019-05-15T00:49:40.070Z,71.87
2019-05-15T00:50:10.014Z,71.59
2019-05-15T00:50:40.147Z,71.18
2019-05-15T00:51:10.020Z,71.37
2019-05-15T00:51:43.352Z,71.35
2019-05-15T00:52:12.395Z,72.27
2019-05-15T00:52:40.076Z,72.51
2019-05-15T00:53:10.006Z,72.43
2019-05-15T00:53:43.310Z,72.10
2019-05-15T00:54:10.008Z,72.01
2019-05-15T00:54:40.086Z,71.73
2019-05-15T00:55:10.014Z,72.09
2019-05-15T00:55:40.067Z,72.92
2019-05-15T00:56:10.022Z,73.09
2019-05-15T00:56:40.071Z,72.61
2019-05-15T00:57:10.012Z,72.16
2019-05-15T00:57:40.071Z,71.87
2019-05-15T00:58:10.018Z,71.83
2019-05-15T00:58:41.088Z,72.40
2019-05-15T00:59:23.096Z,72.38
2019-05-15T00:59:40.072Z,72.26
2019-05-15T01:00:10.015Z,72.18
2019-05-15T01:00:40.077Z,71.94
2019-05-15T01:01:10.015Z,72.06
2019-05-15T01:01:40.079Z,71.94
2019-05-15T01:02:13.239Z,71.29
2019-05-15T01:02:40.074Z,71.33
2019-05-15T01:03:10.261Z,71.92
2019-05-15T01:03:40.076Z,71.83
2019-05-15T01:04:13.230Z,71.98
2019-05-15T01:04:40.076Z,72.16
2019-05-15T01:05:10.014Z,72.15
2019-05-15T01:05:40.079Z,72.04
2019-05-15T01:06:10.013Z,72.07
2019-05-15T01:06:40.088Z,71.73
2019-05-15T01:07:10.014Z,71.61
2019-05-15T01:07:40.079Z,71.77
2019-05-15T01:08:10.009Z,72.17
2019-05-15T01:09:10.008Z,72.74
2019-05-15T01:09:40.077Z,71.68
2019-05-15T01:10:11.020Z,71.87
2019-05-15T01:10:40.073Z,71.72
2019-05-15T01:11:40.089Z,71.39
2019-05-15T01:12:10.017Z,71.88
2019-05-15T01:12:43.241Z,72.06
2019-05-15T01:13:10.018Z,71.96
2019-05-15T01:14:12.322Z,71.73
2019-05-15T01:14:43.116Z,71.49
2019-05-15T01:15:10.023Z,71.10
2019-05-15T01:15:40.139Z,70.88
2019-05-15T01:16:40.084Z,70.58
2019-05-15T01:17:10.023Z,70.60
2019-05-15T01:17:40.107Z,70.46
2019-05-15T01:18:10.025Z,70.37
2019-05-15T01:19:10.024Z,70.42
2019-05-15T01:19:40.109Z,70.45
2019-05-15T01:20:10.023Z,70.40
2019-05-15T01:20:40.088Z,70.39
2019-05-15T01:21:40.081Z,70.75
2019-05-15T01:22:10.018Z,70.75
2019-05-15T01:22:40.077Z,70.87
2019-05-15T01:23:13.282Z,70.91
2019-05-15T01:24:10.011Z,70.94
2019-05-15T01:24:40.074Z,70.91
2019-05-15T01:25:13.275Z,70.93
2019-05-15T01:25:40.072Z,71.06
2019-05-15T01:26:40.079Z,71.19
2019-05-15T01:27:10.017Z,71.14
2019-05-15T01:27:40.084Z,71.03
2019-05-15T01:28:10.020Z,71.17
2019-05-15T01:29:10.021Z,71.30
2019-05-15T01:29:45.076Z,71.33
2019-05-15T01:30:10.029Z,71.29
2019-05-15T01:30:40.079Z,71.40
2019-05-15T01:31:40.085Z,71.42
2019-05-15T01:32:10.107Z,71.53
2019-05-15T01:32:40.080Z,71.59
2019-05-15T01:33:10.025Z,71.89
2019-05-15T01:33:43.283Z,72.40
2019-05-15T01:34:10.099Z,72.65
2019-05-15T01:34:40.084Z,72.44
2019-05-15T01:35:10.030Z,72.21
2019-05-15T01:35:43.131Z,72.26
2019-05-15T01:36:40.085Z,72.00
2019-05-15T01:37:10.022Z,71.99
2019-05-15T01:37:40.081Z,71.93
2019-05-15T01:38:10.017Z,71.80
2019-05-15T01:39:10.019Z,71.81
2019-05-15T01:39:40.077Z,71.84
2019-05-15T01:40:10.014Z,71.82
2019-05-15T01:40:40.081Z,71.81
2019-05-15T01:41:40.079Z,71.97
2019-05-15T01:42:10.017Z,71.96
2019-05-15T01:42:40.082Z,71.98
2019-05-15T01:43:10.023Z,71.98
2019-05-15T01:43:40.084Z,72.00
2019-05-15T01:44:13.296Z,71.96
2019-05-15T01:44:40.170Z,72.11
2019-05-15T01:45:10.028Z,72.31
2019-05-15T01:45:40.081Z,72.60
2019-05-15T01:46:13.225Z,72.70
2019-05-15T01:46:40.084Z,72.64
2019-05-15T01:47:10.027Z,72.53
2019-05-15T01:47:40.086Z,72.29
2019-05-15T01:48:10.021Z,72.13
2019-05-15T01:48:40.089Z,72.16
2019-05-15T01:49:10.027Z,72.21
2019-05-15T01:49:40.084Z,72.10
2019-05-15T01:50:10.019Z,72.01
2019-05-15T01:50:40.085Z,72.18
2019-05-15T01:51:10.035Z,72.16
2019-05-15T01:51:40.081Z,72.07
2019-05-15T01:52:10.024Z,72.01
2019-05-15T01:52:40.087Z,72.06
2019-05-15T01:53:10.020Z,72.02
2019-05-15T01:53:40.093Z,72.05
2019-05-15T01:54:10.021Z,72.34
2019-05-15T01:54:43.383Z,73.08
2019-05-15T01:55:10.030Z,73.05
2019-05-15T01:55:40.079Z,72.79
2019-05-15T01:56:10.038Z,72.59
2019-05-15T01:56:43.371Z,72.46
2019-05-15T01:57:10.022Z,72.42
2019-05-15T01:57:40.087Z,72.31
2019-05-15T01:58:10.025Z,72.29
2019-05-15T01:58:40.085Z,72.33
2019-05-15T01:59:10.036Z,72.41
2019-05-15T01:59:53.829Z,72.44
2019-05-15T02:00:10.024Z,72.48
2019-05-15T02:00:40.086Z,72.42
2019-05-15T02:01:10.025Z,72.42
2019-05-15T02:01:40.087Z,72.47
2019-05-15T02:02:10.031Z,72.63
2019-05-15T02:02:40.098Z,72.66
2019-05-15T02:03:11.032Z,72.65
2019-05-15T02:04:10.031Z,72.67
2019-05-15T02:04:40.095Z,72.65
2019-05-15T02:05:13.217Z,72.68
2019-05-15T02:05:41.822Z,72.62
2019-05-15T02:06:11.743Z,72.48
2019-05-15T02:06:40.092Z,72.50
2019-05-15T02:07:13.139Z,72.62
2019-05-15T02:07:40.093Z,72.59
2019-05-15T02:08:10.028Z,72.61
2019-05-15T02:08:40.095Z,72.63
2019-05-15T02:09:10.028Z,72.62
2019-05-15T02:09:40.087Z,72.67
2019-05-15T02:10:10.037Z,72.70
2019-05-15T02:10:40.087Z,72.67
2019-05-15T02:11:10.027Z,72.70
2019-05-15T02:11:40.088Z,72.77
2019-05-15T02:12:10.023Z,72.85
2019-05-15T02:12:40.081Z,72.88
2019-05-15T02:13:10.027Z,73.03
2019-05-15T02:13:40.089Z,73.11
2019-05-15T02:14:10.027Z,73.05
2019-05-15T02:14:41.145Z,73.07
2019-05-15T02:15:10.026Z,73.09
2019-05-15T02:15:43.109Z,73.06
2019-05-15T02:16:10.031Z,73.02
2019-05-15T02:16:40.087Z,73.08
2019-05-15T02:17:10.031Z,73.21
2019-05-15T02:17:43.215Z,73.28
2019-05-15T02:18:10.039Z,73.29
2019-05-15T02:18:40.087Z,73.32
2019-05-15T02:19:10.040Z,73.24
2019-05-15T02:19:40.100Z,73.27
2019-05-15T02:20:10.031Z,73.36
2019-05-15T02:20:40.087Z,73.36
2019-05-15T02:21:11.043Z,73.37
2019-05-15T02:21:40.093Z,73.41
2019-05-15T02:22:10.034Z,73.40
2019-05-15T02:22:42.694Z,73.43
2019-05-15T02:23:11.913Z,73.40
2019-05-15T02:23:40.093Z,73.34
2019-05-15T02:24:10.029Z,73.33
2019-05-15T02:24:40.091Z,73.34
2019-05-15T02:25:11.261Z,73.37
2019-05-15T02:25:40.108Z,73.36
2019-05-15T02:26:40.086Z,73.60
2019-05-15T02:27:10.029Z,73.71
2019-05-15T02:27:40.085Z,73.67
2019-05-15T02:28:13.158Z,73.59
2019-05-15T02:28:40.090Z,73.71
2019-05-15T02:29:40.094Z,73.66
2019-05-15T02:30:21.331Z,73.59
2019-05-15T02:30:42.106Z,73.58
2019-05-15T02:31:11.055Z,73.56
2019-05-15T02:31:40.091Z,73.58
2019-05-15T02:32:11.087Z,73.66
2019-05-15T02:32:41.103Z,73.62
2019-05-15T02:33:12.052Z,73.61
2019-05-15T02:33:41.114Z,73.65
2019-05-15T02:34:11.043Z,73.68
2019-05-15T02:34:41.106Z,73.64
2019-05-15T02:35:11.053Z,73.74
2019-05-15T02:35:41.214Z,73.79
2019-05-15T02:36:11.043Z,73.74
2019-05-15T02:36:45.125Z,73.77
2019-05-15T02:37:10.037Z,74.09
2019-05-15T02:37:42.300Z,74.07
2019-05-15T02:38:15.371Z,74.11
2019-05-15T02:38:43.211Z,74.12
2019-05-15T02:39:10.037Z,74.09
2019-05-15T02:39:40.095Z,74.07
2019-05-15T02:40:11.052Z,74.08
2019-05-15T02:40:41.220Z,73.99
2019-05-15T02:41:11.048Z,74.00
2019-05-15T02:41:41.106Z,74.02
2019-05-15T02:42:11.037Z,74.15
2019-05-15T02:42:41.110Z,74.24
2019-05-15T02:43:11.039Z,74.21
2019-05-15T02:43:40.099Z,74.25
2019-05-15T02:44:11.168Z,74.33
2019-05-15T02:44:41.124Z,74.29
2019-05-15T02:45:11.046Z,74.28
2019-05-15T02:45:42.691Z,74.35
2019-05-15T02:46:11.138Z,74.31
2019-05-15T02:46:40.113Z,74.35
2019-05-15T02:47:41.109Z,74.55
2019-05-15T02:48:10.042Z,74.60
2019-05-15T02:48:42.120Z,74.64
2019-05-15T02:49:13.168Z,74.62
2019-05-15T02:49:40.087Z,74.67
2019-05-15T02:50:15.059Z,74.79
2019-05-15T02:50:40.101Z,74.93
2019-05-15T02:51:11.055Z,74.83
2019-05-15T02:51:41.132Z,74.76
2019-05-15T02:52:11.052Z,74.78
2019-05-15T02:52:45.076Z,74.79
2019-05-15T02:53:11.056Z,74.79
2019-05-15T02:53:40.102Z,75.18
2019-05-15T02:54:11.064Z,75.47
2019-05-15T02:54:41.122Z,75.58
2019-05-15T02:55:11.050Z,75.37
2019-05-15T02:55:41.142Z,75.65
2019-05-15T02:56:10.042Z,75.89
2019-05-15T02:56:41.249Z,75.99
2019-05-15T02:57:11.040Z,76.40
2019-05-15T02:57:43.166Z,76.51
2019-05-15T02:58:11.065Z,75.92
2019-05-15T02:58:41.109Z,76.08
2019-05-15T02:59:10.032Z,75.93
2019-05-15T02:59:43.255Z,75.81
2019-05-15T03:00:30.113Z,76.39
2019-05-15T03:00:49.209Z,76.04
2019-05-15T03:01:10.041Z,75.49
2019-05-15T03:01:41.175Z,75.80
2019-05-15T03:02:11.066Z,75.61
2019-05-15T03:02:42.113Z,75.90
2019-05-15T03:03:10.058Z,76.13
2019-05-15T03:03:40.139Z,75.86
2019-05-15T03:04:10.052Z,75.63
2019-05-15T03:04:41.135Z,75.56
2019-05-15T03:05:10.036Z,75.37
2019-05-15T03:05:42.119Z,75.15
2019-05-15T03:06:11.058Z,75.08
2019-05-15T03:06:40.100Z,74.67
2019-05-15T03:07:11.303Z,74.87
2019-05-15T03:07:41.137Z,74.87
2019-05-15T03:08:15.080Z,75.13
2019-05-15T03:08:41.112Z,75.00
2019-05-15T03:09:10.044Z,74.96
2019-05-15T03:09:41.121Z,75.22
2019-05-15T03:10:13.188Z,75.62
2019-05-15T03:10:41.192Z,75.40
2019-05-15T03:11:11.047Z,75.23
2019-05-15T03:11:42.112Z,75.06
2019-05-15T03:12:10.036Z,75.56
2019-05-15T03:12:42.122Z,75.41
2019-05-15T03:13:11.052Z,75.14
2019-05-15T03:13:40.107Z,74.63
2019-05-15T03:14:10.043Z,74.65
2019-05-15T03:14:41.106Z,75.20
2019-05-15T03:15:11.052Z,75.31
2019-05-15T03:15:41.111Z,75.05
2019-05-15T03:16:11.062Z,75.15
2019-05-15T03:16:40.100Z,75.36
2019-05-15T03:17:11.054Z,75.39
2019-05-15T03:17:41.201Z,75.32
2019-05-15T03:18:11.059Z,75.45
2019-05-15T03:18:45.133Z,74.99
2019-05-15T03:19:11.057Z,74.52
2019-05-15T03:19:40.133Z,74.67
2019-05-15T03:20:11.422Z,75.26
2019-05-15T03:20:43.214Z,75.05
2019-05-15T03:21:11.052Z,75.17
2019-05-15T03:21:40.112Z,75.06
2019-05-15T03:22:11.100Z,75.35
2019-05-15T03:22:41.113Z,75.32
2019-05-15T03:23:11.055Z,75.50
2019-05-15T03:23:41.115Z,75.40
2019-05-15T03:24:11.057Z,75.92
2019-05-15T03:24:40.104Z,76.14
2019-05-15T03:25:12.057Z,75.71
2019-05-15T03:25:41.118Z,75.53
2019-05-15T03:26:10.048Z,75.08
2019-05-15T03:26:40.112Z,74.82
2019-05-15T03:27:10.043Z,75.29
2019-05-15T03:27:41.170Z,75.65
2019-05-15T03:28:11.311Z,75.84
2019-05-15T03:28:40.098Z,75.46
2019-05-15T03:29:15.137Z,75.62
2019-05-15T03:29:41.118Z,75.67
2019-05-15T03:30:13.972Z,75.56
2019-05-15T03:31:11.988Z,75.46
2019-05-15T03:31:39.861Z,75.73
2019-05-15T03:31:58.331Z,76.04
2019-05-15T03:32:26.982Z,76.22
2019-05-15T03:32:50.955Z,76.45
2019-05-15T03:33:45.325Z,76.21
2019-05-15T03:34:20.237Z,76.22
2019-05-15T03:34:47.078Z,75.74
2019-05-15T03:35:14.860Z,75.58
2019-05-15T03:35:43.985Z,75.26
2019-05-15T03:36:13.631Z,75.28
2019-05-15T03:36:44.922Z,75.52
2019-05-15T03:37:12.484Z,75.80
2019-05-15T03:37:41.119Z,75.70
2019-05-15T03:38:10.050Z,75.50
2019-05-15T03:38:41.220Z,75.37
2019-05-15T03:39:10.041Z,75.25
2019-05-15T03:39:46.807Z,75.18
2019-05-15T03:40:11.092Z,75.28
2019-05-15T03:40:41.115Z,75.51
2019-05-15T03:41:11.049Z,75.57
2019-05-15T03:41:43.222Z,75.70
2019-05-15T03:42:10.045Z,75.70
2019-05-15T03:42:41.131Z,75.47
2019-05-15T03:43:10.072Z,75.21
2019-05-15T03:43:40.110Z,75.23
2019-05-15T03:44:10.042Z,75.28
2019-05-15T03:44:40.109Z,75.24
2019-05-15T03:45:11.055Z,75.28
2019-05-15T03:45:41.114Z,75.28
2019-05-15T03:46:10.048Z,75.66
2019-05-15T03:46:41.133Z,76.22
2019-05-15T03:47:10.109Z,76.55
2019-05-15T03:47:41.116Z,77.03
2019-05-15T03:48:10.052Z,76.27
2019-05-15T03:48:41.113Z,76.04
2019-05-15T03:49:11.181Z,76.25
2019-05-15T03:49:41.192Z,76.59
2019-05-15T03:50:13.074Z,76.51
2019-05-15T03:50:41.117Z,76.20
2019-05-15T03:51:10.047Z,76.17
2019-05-15T03:51:45.577Z,76.29
2019-05-15T03:52:13.145Z,76.32
2019-05-15T03:52:41.124Z,76.29
2019-05-15T03:53:11.060Z,76.45
2019-05-15T03:53:41.128Z,76.18
2019-05-15T03:54:10.062Z,76.57
2019-05-15T03:54:40.115Z,76.43
2019-05-15T03:55:12.068Z,75.90
2019-05-15T03:55:41.121Z,75.54
2019-05-15T03:56:11.064Z,75.69
2019-05-15T03:56:40.117Z,76.53
2019-05-15T03:57:11.070Z,76.87
2019-05-15T03:57:41.125Z,77.00
2019-05-15T03:58:11.063Z,76.95
2019-05-15T03:58:41.123Z,76.70
2019-05-15T03:59:10.054Z,76.64
2019-05-15T03:59:41.152Z,77.13
2019-05-15T04:00:11.064Z,77.19
2019-05-15T04:00:43.122Z,76.84
2019-05-15T04:01:28.216Z,76.74
2019-05-15T04:01:43.724Z,76.72
2019-05-15T04:02:10.052Z,76.39
2019-05-15T04:02:43.191Z,76.08
2019-05-15T04:03:12.070Z,76.09
2019-05-15T04:03:40.131Z,76.42
2019-05-15T04:04:10.061Z,76.36
2019-05-15T04:04:40.111Z,76.17
2019-05-15T04:05:12.101Z,75.92
2019-05-15T04:05:40.110Z,75.51
2019-05-15T04:06:11.064Z,76.07
2019-05-15T04:06:40.114Z,76.54
2019-05-15T04:07:10.061Z,76.78
2019-05-15T04:07:41.129Z,75.99
2019-05-15T04:08:11.127Z,76.26
2019-05-15T04:08:40.112Z,75.74
2019-05-15T04:09:11.069Z,75.58
2019-05-15T04:09:40.116Z,75.56
2019-05-15T04:10:11.205Z,75.71
2019-05-15T04:10:41.119Z,76.19
2019-05-15T04:11:13.072Z,76.00
2019-05-15T04:11:40.120Z,75.75
2019-05-15T04:12:10.055Z,75.36
2019-05-15T04:12:41.127Z,75.88
2019-05-15T04:13:13.182Z,75.66
2019-05-15T04:13:41.134Z,75.40
2019-05-15T04:14:11.064Z,75.50
2019-05-15T04:14:40.118Z,75.97
2019-05-15T04:15:11.141Z,76.48
2019-05-15T04:15:41.130Z,75.97
2019-05-15T04:16:11.064Z,75.67
2019-05-15T04:16:40.116Z,75.90
2019-05-15T04:17:10.050Z,75.66
2019-05-15T04:17:41.130Z,75.62
2019-05-15T04:18:11.063Z,75.21
2019-05-15T04:18:40.118Z,74.75
2019-05-15T04:19:11.062Z,74.21
2019-05-15T04:19:40.129Z,73.76
2019-05-15T04:20:11.070Z,73.30
2019-05-15T04:20:41.223Z,73.13
2019-05-15T04:21:10.052Z,73.06
2019-05-15T04:21:45.358Z,73.26
2019-05-15T04:22:10.059Z,73.28
2019-05-15T04:22:41.165Z,73.25
2019-05-15T04:23:11.071Z,73.75
2019-05-15T04:23:43.123Z,73.68
2019-05-15T04:24:10.103Z,73.48
2019-05-15T04:24:40.118Z,73.44
2019-05-15T04:25:11.077Z,73.76
2019-05-15T04:25:40.131Z,73.23
2019-05-15T04:26:10.074Z,73.14
2019-05-15T04:26:40.122Z,72.88
2019-05-15T04:27:11.106Z,72.66
2019-05-15T04:27:40.116Z,72.83
2019-05-15T04:28:11.088Z,73.06
2019-05-15T04:28:42.357Z,72.45
2019-05-15T04:29:11.082Z,72.65
2019-05-15T04:29:41.134Z,72.82
2019-05-15T04:30:12.077Z,72.38
2019-05-15T04:30:40.118Z,72.33
2019-05-15T04:31:11.266Z,72.11
2019-05-15T04:31:55.410Z,71.85
2019-05-15T04:32:15.084Z,71.80
2019-05-15T04:32:41.125Z,71.79
2019-05-15T04:33:11.069Z,72.17
2019-05-15T04:33:41.126Z,72.20
2019-05-15T04:34:13.238Z,72.17
2019-05-15T04:34:40.123Z,72.01
2019-05-15T04:35:11.067Z,71.52
2019-05-15T04:35:41.126Z,71.11
2019-05-15T04:36:11.077Z,70.73
2019-05-15T04:36:44.551Z,70.67
2019-05-15T04:37:10.056Z,70.75
2019-05-15T04:37:42.141Z,71.30
2019-05-15T04:38:11.071Z,71.63
2019-05-15T04:38:40.125Z,71.99
2019-05-15T04:39:11.076Z,72.11
2019-05-15T04:39:41.257Z,71.98
2019-05-15T04:40:11.071Z,71.97
2019-05-15T04:40:41.126Z,71.36
2019-05-15T04:41:11.070Z,70.91
2019-05-15T04:41:41.147Z,70.83
2019-05-15T04:42:10.064Z,70.53
2019-05-15T04:42:43.099Z,70.49
2019-05-15T04:43:11.322Z,70.31
2019-05-15T04:43:44.950Z,70.26
2019-05-15T04:44:11.071Z,70.36
2019-05-15T04:44:43.182Z,70.27
2019-05-15T04:45:11.092Z,70.31
2019-05-15T04:45:40.152Z,70.56
2019-05-15T04:46:11.069Z,70.65
2019-05-15T04:46:40.123Z,71.20
2019-05-15T04:47:11.072Z,71.12
2019-05-15T04:47:41.166Z,70.91
2019-05-15T04:48:11.076Z,71.00
2019-05-15T04:48:41.132Z,70.48
2019-05-15T04:49:10.058Z,70.26
2019-05-15T04:49:40.122Z,70.25
2019-05-15T04:50:10.105Z,69.61
2019-05-15T04:50:41.130Z,69.42
2019-05-15T04:51:11.066Z,69.39
2019-05-15T04:51:40.120Z,68.93
2019-05-15T04:52:11.129Z,68.84
2019-05-15T04:52:43.179Z,68.98
2019-05-15T04:53:15.096Z,68.80
2019-05-15T04:53:41.129Z,68.81
2019-05-15T04:54:10.071Z,68.44
2019-05-15T04:54:41.135Z,68.16
2019-05-15T04:55:13.197Z,68.47
2019-05-15T04:55:41.136Z,68.37
2019-05-15T04:56:10.067Z,68.26
2019-05-15T04:56:41.135Z,68.17
2019-05-15T04:57:10.103Z,68.10
2019-05-15T04:57:41.187Z,67.55
2019-05-15T04:58:11.074Z,67.58
2019-05-15T04:58:40.118Z,67.58
2019-05-15T04:59:11.079Z,68.26
2019-05-15T04:59:40.124Z,69.05
2019-05-15T05:00:11.133Z,69.27
2019-05-15T05:00:41.137Z,68.92
2019-05-15T05:01:10.069Z,69.24
2019-05-15T05:01:41.156Z,68.65
2019-05-15T05:02:16.819Z,68.88
2019-05-15T05:02:41.193Z,68.74
2019-05-15T05:03:11.068Z,68.71
2019-05-15T05:03:43.151Z,68.94
2019-05-15T05:04:10.061Z,69.59
2019-05-15T05:04:40.121Z,69.59
2019-05-15T05:05:11.070Z,69.15
2019-05-15T05:05:43.264Z,69.51
2019-05-15T05:06:11.072Z,69.75
2019-05-15T05:06:40.267Z,69.47
2019-05-15T05:07:10.063Z,69.55
2019-05-15T05:07:41.131Z,69.22
2019-05-15T05:08:10.061Z,68.93
2019-05-15T05:08:41.242Z,68.90
2019-05-15T05:09:10.072Z,68.78
2019-05-15T05:09:40.124Z,68.74
2019-05-15T05:10:11.086Z,68.78
2019-05-15T05:10:40.125Z,68.91
2019-05-15T05:11:11.078Z,68.48
2019-05-15T05:11:40.128Z,67.90
2019-05-15T05:12:10.058Z,67.59
2019-05-15T05:12:42.602Z,67.76
2019-05-15T05:13:11.260Z,67.80
2019-05-15T05:13:40.148Z,67.50
2019-05-15T05:14:13.083Z,67.46
2019-05-15T05:14:40.132Z,67.34
2019-05-15T05:15:10.073Z,67.37
2019-05-15T05:15:40.125Z,67.63
2019-05-15T05:16:13.244Z,67.49
2019-05-15T05:16:40.147Z,67.12
2019-05-15T05:17:10.061Z,67.91
2019-05-15T05:17:40.125Z,68.93
2019-05-15T05:18:10.061Z,68.62
2019-05-15T05:18:42.144Z,68.64
2019-05-15T05:19:10.071Z,68.62
2019-05-15T05:19:41.142Z,68.34
2019-05-15T05:20:10.083Z,68.53
2019-05-15T05:20:40.126Z,69.25
2019-05-15T05:21:10.061Z,69.58
2019-05-15T05:21:40.126Z,69.88
2019-05-15T05:22:10.062Z,69.84
2019-05-15T05:22:40.134Z,69.32
2019-05-15T05:23:10.068Z,69.77
2019-05-15T05:23:41.218Z,69.93
2019-05-15T05:24:10.061Z,70.23
2019-05-15T05:24:43.158Z,70.25
2019-05-15T05:25:10.063Z,70.34
2019-05-15T05:25:40.128Z,70.06
2019-05-15T05:26:12.091Z,69.98
2019-05-15T05:26:43.278Z,70.33
2019-05-15T05:27:10.067Z,70.30
2019-05-15T05:27:40.128Z,70.22
2019-05-15T05:28:10.070Z,70.25
2019-05-15T05:28:40.129Z,70.50
2019-05-15T05:29:10.080Z,70.61
2019-05-15T05:29:40.136Z,71.20
2019-05-15T05:30:10.070Z,70.82
2019-05-15T05:30:40.127Z,70.55
2019-05-15T05:31:10.070Z,70.60
2019-05-15T05:31:40.135Z,70.74
2019-05-15T05:32:10.067Z,70.82
2019-05-15T05:32:40.135Z,70.92
2019-05-15T05:33:10.071Z,71.12
2019-05-15T05:33:40.127Z,71.06
2019-05-15T05:34:11.164Z,70.88
2019-05-15T05:34:40.132Z,70.82
2019-05-15T05:35:13.085Z,71.03
2019-05-15T05:35:40.168Z,72.13
2019-05-15T05:36:10.068Z,72.35
2019-05-15T05:36:40.126Z,72.57
2019-05-15T05:37:13.202Z,72.82
2019-05-15T05:37:40.131Z,72.53
2019-05-15T05:38:10.067Z,72.06
2019-05-15T05:38:40.138Z,72.05
2019-05-15T05:39:14.339Z,71.17
2019-05-15T05:39:40.219Z,70.89
2019-05-15T05:40:10.069Z,71.35
2019-05-15T05:40:40.122Z,72.29
2019-05-15T05:41:10.066Z,72.36
2019-05-15T05:41:40.134Z,72.66
2019-05-15T05:42:10.078Z,71.73
2019-05-15T05:42:40.130Z,71.64
2019-05-15T05:43:10.082Z,71.46
2019-05-15T05:43:40.126Z,71.20
2019-05-15T05:44:10.076Z,71.90
2019-05-15T05:44:44.290Z,71.42
2019-05-15T05:45:10.068Z,72.20
2019-05-15T05:45:43.081Z,71.67
2019-05-15T05:46:10.064Z,72.12
2019-05-15T05:46:40.140Z,71.89
2019-05-15T05:47:10.069Z,71.62
2019-05-15T05:47:43.187Z,71.07
2019-05-15T05:48:10.066Z,71.29
2019-05-15T05:48:40.134Z,71.73
2019-05-15T05:49:10.076Z,71.08
2019-05-15T05:49:40.135Z,70.83
2019-05-15T05:50:10.076Z,70.47
2019-05-15T05:50:43.344Z,70.01
2019-05-15T05:51:10.077Z,69.95
2019-05-15T05:51:40.131Z,70.55
2019-05-15T05:52:10.069Z,70.21
2019-05-15T05:52:40.125Z,69.44
2019-05-15T05:53:10.071Z,70.08
2019-05-15T05:53:40.132Z,69.51
2019-05-15T05:54:10.146Z,69.81
2019-05-15T05:54:40.128Z,70.72
2019-05-15T05:55:11.269Z,70.47
2019-05-15T05:55:40.129Z,70.69
2019-05-15T05:56:13.072Z,70.67
2019-05-15T05:56:40.138Z,70.83
2019-05-15T05:57:10.076Z,70.38
2019-05-15T05:57:40.135Z,70.62
2019-05-15T05:58:13.201Z,70.38
2019-05-15T05:58:40.139Z,70.18
2019-05-15T05:59:10.077Z,69.78
2019-05-15T05:59:40.136Z,69.41
2019-05-15T06:00:10.078Z,70.14
2019-05-15T06:00:40.174Z,70.39
2019-05-15T06:01:10.065Z,70.13
2019-05-15T06:01:44.058Z,70.60
2019-05-15T06:02:10.072Z,71.24
2019-05-15T06:02:47.545Z,71.34
2019-05-15T06:03:10.075Z,71.40
2019-05-15T06:03:40.137Z,70.89
2019-05-15T06:04:10.072Z,70.01
2019-05-15T06:04:40.148Z,69.70
2019-05-15T06:05:10.076Z,70.16
2019-05-15T06:05:41.261Z,70.15
2019-05-15T06:06:11.083Z,70.05
2019-05-15T06:06:43.160Z,70.01
2019-05-15T06:07:14.177Z,69.74
2019-05-15T06:07:40.134Z,69.67
2019-05-15T06:08:10.098Z,69.58
2019-05-15T06:08:43.194Z,69.63
2019-05-15T06:09:10.071Z,69.85
2019-05-15T06:09:40.135Z,70.98
2019-05-15T06:10:10.068Z,70.49
2019-05-15T06:10:40.141Z,69.84
2019-05-15T06:11:11.080Z,69.47
2019-05-15T06:11:40.133Z,70.30
2019-05-15T06:12:10.071Z,69.88
2019-05-15T06:12:40.142Z,69.20
2019-05-15T06:13:10.073Z,69.73
2019-05-15T06:13:40.137Z,70.47
2019-05-15T06:14:10.081Z,70.40
2019-05-15T06:14:40.145Z,70.19
2019-05-15T06:15:10.078Z,69.73
2019-05-15T06:15:40.139Z,69.09
2019-05-15T06:16:11.281Z,69.10
2019-05-15T06:16:40.138Z,69.22
2019-05-15T06:17:13.098Z,69.41
2019-05-15T06:17:40.162Z,69.23
2019-05-15T06:18:10.076Z,69.22
2019-05-15T06:18:40.171Z,69.25
2019-05-15T06:19:13.180Z,69.24
2019-05-15T06:19:40.152Z,68.91
2019-05-15T06:20:10.079Z,69.11
2019-05-15T06:20:40.147Z,69.03
2019-05-15T06:21:10.077Z,69.72
2019-05-15T06:21:53.568Z,69.02
2019-05-15T06:22:10.069Z,69.56
2019-05-15T06:22:40.130Z,69.75
2019-05-15T06:23:10.080Z,70.06
2019-05-15T06:23:45.035Z,69.90
2019-05-15T06:24:13.025Z,70.07
2019-05-15T06:24:40.141Z,69.87
2019-05-15T06:25:12.097Z,69.70
2019-05-15T06:25:40.147Z,69.11
2019-05-15T06:26:10.086Z,68.72
2019-05-15T06:26:41.164Z,68.85
2019-05-15T06:27:10.082Z,68.76
2019-05-15T06:27:43.134Z,68.36
2019-05-15T06:28:10.089Z,69.15
2019-05-15T06:28:40.138Z,69.14
2019-05-15T06:29:10.093Z,69.07
2019-05-15T06:29:43.227Z,69.02
2019-05-15T06:30:19.386Z,68.71
2019-05-15T06:30:40.144Z,69.51
2019-05-15T06:31:10.104Z,69.57
2019-05-15T06:31:40.141Z,69.75
2019-05-15T06:32:10.081Z,70.31
2019-05-15T06:32:41.144Z,69.58
2019-05-15T06:33:13.470Z,69.22
2019-05-15T06:33:40.146Z,69.47
2019-05-15T06:34:10.077Z,69.46
2019-05-15T06:34:40.147Z,69.49
2019-05-15T06:35:10.079Z,70.17
2019-05-15T06:35:40.141Z,70.13